Home > Products > Valid Products > TAF

000
FTUS42 KMHX 251100
TAFEWN
TAF
KEWN 251135Z 2512/2612 00000KT P6SM SKC
     FM251500 30005KT P6SM SKC=



000
FTUS42 KMHX 250500
TAFEWN
TAF
KEWN 250538Z 2506/2606 00000KT P6SM SKC
     FM251500 30005KT P6SM SKC=



000
FTUS42 KMHX 242300
TAFEWN
TAF
KEWN 242321Z 2500/2524 00000KT P6SM BKN200
     FM251500 30005KT P6SM SKC=



000
FTUS42 KMHX 241700
TAFEWN
TAF
KEWN 241720Z 2418/2518 34004KT P6SM SKC=



000
FTUS42 KMHX 241100
TAFEWN
TAF
KEWN 241124Z 2412/2512 32005KT P6SM SCT250=



000
FTUS42 KMHX 240500 RRA
TAFEWN
TAF
KEWN 240540Z 2406/2506 32005KT P6SM SCT250=



000
FTUS42 KMHX 232300
TAFEWN
TAF
KEWN 232325Z 2400/2424 32005KT P6SM SCT250=



000
FTUS42 KMHX 231700
TAFEWN
TAF
KEWN 231722Z 2318/2418 28008KT P6SM SKC
     FM232100 29004KT P6SM SKC
     FM241400 33006KT P6SM SKC=



000
FTUS42 KMHX 231100
TAFEWN
TAF
KEWN 231120Z 2312/2412 30007KT P6SM SKC
     FM231400 31012G20KT P6SM FEW040
     FM232100 30005KT P6SM SKC=



000
FTUS42 KMHX 230500
TAFEWN
TAF
KEWN 230523Z 2306/2406 30006KT P6SM SCT040
     FM231400 31012G20KT P6SM FEW030
     FM232100 30005KT P6SM SKC=



000
FTUS42 KMHX 222300
TAFEWN
TAF
KEWN 222340Z 2300/2324 30005KT P6SM BKN070
     FM230200 30004KT P6SM SKC
     FM231500 31011G18KT P6SM SKC=



000
FTUS42 KMHX 221700
TAFEWN
TAF
KEWN 221728Z 2218/2318 32012G24KT P6SM OVC040
     FM222300 31007KT P6SM SKC
     FM231500 31011G18KT P6SM SKC=



000
FTUS42 KMHX 221700
TAFEWN
TAF
KEWN 221728Z 2218/2318 32012G24KT P6SM OVC040
     FM222300 31007KT P6SM SKC
     FM231500 31011G18KT P6SM SKC=



    US Dept of Commerce
    National Oceanic and Atmospheric Administration
    National Weather Service
    1325 East West Highway
    Silver Spring, MD 20910
    Page Author: NWS Internet Services Team
Disclaimer
Information Quality
Credits
Glossary
Privacy Policy
Freedom of Information Act (FOIA)
About Us
Career Opportunities